createdAt,value
2023-02-03T00:00:48.033Z,70.40
2023-02-03T00:05:46.494Z,69.88
2023-02-03T00:10:43.348Z,70.30
2023-02-03T00:15:40.134Z,70.10
2023-02-03T00:20:37.553Z,70.07
2023-02-03T00:25:34.917Z,70.08
2023-02-03T00:30:33.945Z,70.04
2023-02-03T00:35:30.872Z,70.22
2023-02-03T00:40:29.639Z,70.16
2023-02-03T00:45:26.398Z,69.83
2023-02-03T00:50:23.256Z,69.70
2023-02-03T00:55:20.072Z,69.98
2023-02-03T01:00:20.106Z,69.65
2023-02-03T01:05:16.963Z,69.78
2023-02-03T01:10:15.037Z,69.73
2023-02-03T01:15:11.831Z,70.14
2023-02-03T01:20:13.205Z,69.58
2023-02-03T01:25:10.028Z,69.93
2023-02-03T01:30:08.800Z,69.75
2023-02-03T01:35:06.152Z,70.35
2023-02-03T01:40:04.325Z,69.82
2023-02-03T01:45:01.409Z,70.27
2023-02-03T01:50:06.522Z,70.31
2023-02-03T01:55:07.697Z,69.98
2023-02-03T02:00:07.426Z,69.77
2023-02-03T02:05:18.479Z,69.62
2023-02-03T02:10:16.987Z,69.38
2023-02-03T02:15:13.984Z,69.10
2023-02-03T02:20:56.300Z,68.41
2023-02-03T02:26:13.503Z,68.56
2023-02-03T02:31:39.237Z,68.49
2023-02-03T02:36:46.178Z,68.55
2023-02-03T02:41:47.533Z,68.79
2023-02-03T02:46:49.355Z,68.78
2023-02-03T02:51:48.780Z,68.26
2023-02-03T02:56:52.326Z,68.38
2023-02-03T03:01:50.728Z,67.81
2023-02-03T03:06:51.607Z,67.47
2023-02-03T03:11:50.992Z,67.91
2023-02-03T03:16:54.230Z,67.59
2023-02-03T03:21:54.199Z,67.91
2023-02-03T03:26:55.669Z,67.49
2023-02-03T03:31:53.378Z,67.83
2023-02-03T03:36:56.006Z,67.91
2023-02-03T03:41:59.291Z,67.44
2023-02-03T03:47:07.193Z,67.42
2023-02-03T03:52:08.580Z,67.85
2023-02-03T03:57:14.509Z,67.38
2023-02-03T04:02:14.387Z,67.51
2023-02-03T04:07:13.541Z,67.46
2023-02-03T04:12:23.586Z,67.13
2023-02-03T04:17:21.017Z,67.08
2023-02-03T04:22:17.783Z,67.27
2023-02-03T04:27:14.582Z,67.02
2023-02-03T04:32:11.379Z,67.52
2023-02-03T04:37:09.037Z,67.31
2023-02-03T04:42:06.015Z,67.48
2023-02-03T04:47:02.819Z,66.97
2023-02-03T04:51:59.607Z,67.35
2023-02-03T04:56:57.080Z,67.53
2023-02-03T05:01:53.954Z,67.30
2023-02-03T05:06:50.777Z,67.67
2023-02-03T05:11:47.568Z,67.47
2023-02-03T05:16:46.370Z,67.31
2023-02-03T05:21:44.801Z,67.46
2023-02-03T05:26:41.745Z,67.01
2023-02-03T05:31:38.692Z,66.64
2023-02-03T05:36:36.457Z,67.12
2023-02-03T05:41:54.100Z,67.13
2023-02-03T05:46:53.523Z,67.63
2023-02-03T05:51:52.149Z,67.40
2023-02-03T05:56:49.188Z,67.42
2023-02-03T06:01:46.185Z,66.44
2023-02-03T06:06:44.380Z,67.20
2023-02-03T06:11:42.520Z,66.90
2023-02-03T06:16:39.387Z,67.42
2023-02-03T06:21:36.147Z,67.32
2023-02-03T06:26:32.997Z,67.00
2023-02-03T06:31:31.003Z,66.40
2023-02-03T06:36:28.980Z,66.29
2023-02-03T06:41:29.869Z,66.52
2023-02-03T06:46:29.498Z,66.65
2023-02-03T06:51:27.023Z,65.97
2023-02-03T06:56:24.088Z,66.18
2023-02-03T07:01:21.141Z,65.83
2023-02-03T07:06:18.269Z,66.16
2023-02-03T07:11:15.846Z,65.06
2023-02-03T07:16:12.735Z,65.50
2023-02-03T07:21:09.824Z,65.01
2023-02-03T07:26:07.497Z,65.38
2023-02-03T07:31:05.438Z,64.81
2023-02-03T07:36:02.960Z,64.03
2023-02-03T07:41:00.032Z,64.03
2023-02-03T07:45:56.953Z,63.79
2023-02-03T07:50:54.493Z,63.17
2023-02-03T07:55:51.477Z,62.39
2023-02-03T08:00:48.390Z,62.01
2023-02-03T08:05:45.189Z,60.54
2023-02-03T08:10:42.692Z,59.90
2023-02-03T08:15:39.608Z,59.66
2023-02-03T08:20:36.316Z,58.53
2023-02-03T08:25:33.427Z,58.96
2023-02-03T08:30:31.159Z,59.26
2023-02-03T08:35:28.198Z,59.41
2023-02-03T08:40:25.201Z,59.59
2023-02-03T08:45:22.587Z,59.31
2023-02-03T08:50:20.296Z,59.16
2023-02-03T08:55:17.355Z,58.69
2023-02-03T09:00:17.524Z,58.27
2023-02-03T09:05:17.207Z,58.45
2023-02-03T09:10:14.621Z,57.71
2023-02-03T09:15:27.785Z,56.08
2023-02-03T09:20:26.325Z,56.44
2023-02-03T09:25:24.516Z,56.58
2023-02-03T09:30:21.409Z,56.56
2023-02-03T09:35:18.962Z,56.25
2023-02-03T09:40:22.567Z,55.93
2023-02-03T09:45:25.997Z,56.03
2023-02-03T09:50:25.057Z,56.02
2023-02-03T09:55:30.396Z,55.83
2023-02-03T10:00:32.608Z,56.08
2023-02-03T10:05:46.827Z,54.83
2023-02-03T10:11:08.793Z,52.78
2023-02-03T10:16:22.824Z,54.54
2023-02-03T10:21:31.754Z,55.09
2023-02-03T10:26:30.076Z,55.16
2023-02-03T10:31:32.840Z,55.23
2023-02-03T10:36:44.455Z,55.35
2023-02-03T10:41:41.461Z,55.55
2023-02-03T10:46:41.519Z,55.36
2023-02-03T10:51:43.013Z,54.80
2023-02-03T10:56:40.816Z,54.40
2023-02-03T11:01:43.953Z,54.81
2023-02-03T11:06:55.904Z,53.76
2023-02-03T11:12:05.995Z,52.03
2023-02-03T11:17:07.599Z,52.59
2023-02-03T11:22:05.247Z,51.73
2023-02-03T11:27:06.393Z,51.86
2023-02-03T11:32:07.506Z,48.76
2023-02-03T11:37:26.808Z,49.50
2023-02-03T11:42:24.644Z,49.42
2023-02-03T11:47:23.735Z,48.05
2023-02-03T11:52:47.765Z,48.40
2023-02-03T11:57:59.524Z,48.73
2023-02-03T12:03:11.374Z,49.71
2023-02-03T12:08:23.761Z,47.93
2023-02-03T12:13:39.822Z,47.12
2023-02-03T12:18:51.635Z,47.36
2023-02-03T12:24:00.429Z,45.27
2023-02-03T12:29:04.327Z,44.54
2023-02-03T12:34:12.108Z,44.70
2023-02-03T12:39:19.683Z,45.17
2023-02-03T12:44:21.187Z,45.89
2023-02-03T12:49:30.995Z,45.67
2023-02-03T12:54:37.614Z,45.85
2023-02-03T12:59:37.026Z,46.51
2023-02-03T13:04:36.801Z,45.60
2023-02-03T13:09:39.216Z,45.50
2023-02-03T13:14:42.190Z,45.70
2023-02-03T13:19:45.066Z,45.75
2023-02-03T13:24:46.618Z,45.79
2023-02-03T13:29:58.667Z,46.39
2023-02-03T13:35:21.644Z,47.08
2023-02-03T13:40:40.452Z,47.03
2023-02-03T13:45:41.697Z,47.83
2023-02-03T13:50:41.549Z,47.86
2023-02-03T13:55:45.170Z,48.03
2023-02-03T14:01:05.021Z,47.00
2023-02-03T14:06:02.527Z,47.25
2023-02-03T14:11:37.640Z,45.51
2023-02-03T14:16:37.311Z,47.67
2023-02-03T14:21:42.224Z,48.61
2023-02-03T14:26:43.045Z,48.90
2023-02-03T14:31:56.518Z,49.65
2023-02-03T14:36:55.481Z,49.97
2023-02-03T14:42:03.020Z,50.32
2023-02-03T14:47:11.148Z,50.55
2023-02-03T14:52:23.329Z,50.29
2023-02-03T14:57:35.664Z,50.67
2023-02-03T15:02:34.608Z,50.58
2023-02-03T15:07:36.808Z,50.80
2023-02-03T15:12:37.412Z,50.80
2023-02-03T15:17:36.931Z,50.88
2023-02-03T15:22:39.649Z,51.28
2023-02-03T15:27:36.540Z,51.34
2023-02-03T15:32:38.702Z,52.04
2023-02-03T15:37:43.011Z,52.23
2023-02-03T15:42:48.156Z,52.81
2023-02-03T15:47:52.446Z,52.78
2023-02-03T15:52:53.539Z,53.31
2023-02-03T15:57:51.002Z,54.24
2023-02-03T16:02:48.665Z,54.04
2023-02-03T16:07:47.600Z,54.53
2023-02-03T16:12:44.469Z,55.15
2023-02-03T16:17:41.311Z,54.90
2023-02-03T16:22:41.211Z,55.26
2023-02-03T16:27:38.188Z,55.07
2023-02-03T16:32:53.614Z,55.59
2023-02-03T16:38:09.050Z,56.39
2023-02-03T16:43:29.781Z,56.09
2023-02-03T16:48:44.608Z,56.55
2023-02-03T16:53:44.021Z,56.78
2023-02-03T16:58:40.872Z,56.51
2023-02-03T17:03:38.708Z,56.95
2023-02-03T17:08:37.178Z,56.69
2023-02-03T17:13:36.325Z,56.57
2023-02-03T17:18:33.943Z,56.57
2023-02-03T17:23:31.145Z,56.39
2023-02-03T17:28:28.058Z,56.06
2023-02-03T17:33:28.878Z,56.52
2023-02-03T17:38:25.728Z,55.69
2023-02-03T17:53:55.878Z,56.34
2023-02-03T17:58:55.104Z,56.33
2023-02-03T18:03:55.003Z,56.04
2023-02-03T18:09:00.516Z,55.91
2023-02-03T18:13:57.543Z,56.35
2023-02-03T18:18:56.265Z,56.32
2023-02-03T18:23:56.361Z,55.63
2023-02-03T18:28:53.348Z,55.98
2023-02-03T18:33:50.263Z,56.01
2023-02-03T18:38:48.365Z,55.60
2023-02-03T18:43:46.255Z,55.52
2023-02-03T18:48:43.122Z,55.20
2023-02-03T18:53:40.356Z,55.37
2023-02-03T18:58:37.922Z,55.00
2023-02-03T19:03:35.234Z,54.95
2023-02-03T19:08:32.279Z,55.43
2023-02-03T19:13:31.864Z,55.21
2023-02-03T19:18:30.216Z,55.54
2023-02-03T19:23:26.972Z,55.48
2023-02-03T19:28:30.575Z,55.44
2023-02-03T19:33:28.024Z,55.00
2023-02-03T19:38:25.745Z,55.32
2023-02-03T19:43:23.985Z,55.19
2023-02-03T19:48:20.802Z,55.17
2023-02-03T19:53:18.535Z,55.03
2023-02-03T19:58:16.160Z,54.95
2023-02-03T20:03:13.281Z,54.89
2023-02-03T20:08:13.747Z,53.90
2023-02-03T20:13:11.792Z,54.04
2023-02-03T20:18:09.535Z,53.84
2023-02-03T20:23:06.367Z,54.06
2023-02-03T20:28:03.764Z,54.24
2023-02-03T20:33:00.768Z,53.32
2023-02-03T20:37:58.475Z,53.24
2023-02-03T20:42:55.302Z,53.27
2023-02-03T20:47:52.148Z,53.37
2023-02-03T20:52:53.349Z,52.82
2023-02-03T20:57:53.695Z,52.50
2023-02-03T21:03:09.329Z,52.75
2023-02-03T21:08:18.968Z,51.81
2023-02-03T21:13:20.894Z,52.53
2023-02-03T21:18:34.855Z,51.89
2023-02-03T21:23:39.655Z,51.33
2023-02-03T21:28:37.194Z,51.92
2023-02-03T21:33:41.020Z,51.47
2023-02-03T21:38:37.788Z,51.37
2023-02-03T21:43:37.670Z,51.60
2023-02-03T21:48:39.260Z,51.56
2023-02-03T21:53:38.455Z,51.75
2023-02-03T21:58:36.483Z,51.30
2023-02-03T22:03:37.019Z,51.13
2023-02-03T22:08:36.390Z,50.96
2023-02-03T22:13:33.414Z,51.39
2023-02-03T22:18:30.581Z,51.02
2023-02-03T22:23:28.564Z,51.17
2023-02-03T22:28:25.977Z,51.15
2023-02-03T22:33:22.808Z,50.89
2023-02-03T22:38:19.667Z,51.08
2023-02-03T22:43:17.355Z,51.51
2023-02-03T22:48:14.342Z,51.25
2023-02-03T22:53:11.134Z,51.65
2023-02-03T22:58:08.895Z,51.14
2023-02-03T23:03:06.410Z,50.85
2023-02-03T23:08:03.378Z,51.84
2023-02-03T23:13:00.395Z,51.25
2023-02-03T23:17:57.842Z,51.02
2023-02-03T23:22:55.290Z,50.93
2023-02-03T23:27:52.241Z,51.00
2023-02-03T23:32:49.070Z,51.43
2023-02-03T23:37:46.134Z,51.10
2023-02-03T23:42:43.718Z,51.68
2023-02-03T23:47:41.392Z,52.70
2023-02-03T23:52:38.365Z,53.31
2023-02-03T23:57:35.161Z,54.24
